This is the latest recevied weather packets stored in our database for station/object 9W2RUT-G. If no packets are shown the sender has not sent any weather packets the latest 10 day(s).
| Time | Temp. | Humidity | Pressure | Rain* | Wind** | Luminosity | Snow |
|---|---|---|---|---|---|---|---|
| 1777140933 | 35° C | 43% | 1012.8 hPa | - | - | - | - |
| 1777140032 | 35° C | 43% | 1012.9 hPa | - | - | - | - |
| 1777139132 | 35° C | 42% | 1013.1 hPa | - | - | - | - |
| 1777138232 | 35° C | 42% | 1013.2 hPa | - | - | - | - |
| 1777137332 | 35° C | 43% | 1013.6 hPa | - | - | - | - |
| 1777136431 | 35° C | 42% | 1013.6 hPa | - | - | - | - |
| 1777135530 | 35° C | 42% | 1013.6 hPa | - | - | - | - |
| 1777134630 | 35.56° C | 42% | 1013.8 hPa | - | - | - | - |
| 1777133729 | 36.11° C | 40% | 1013.9 hPa | - | - | - | - |
| 1777132829 | 33.33° C | 47% | 1014.1 hPa | - | - | - | - |
| 1777131946 | 35° C | 42% | 1013.9 hPa | - | - | - | - |
| 1777131046 | 35.56° C | 40% | 1014.2 hPa | - | - | - | - |
| 1777130148 | 36.11° C | 39% | 1014.3 hPa | - | - | - | - |
| 1777129246 | 36.11° C | 39% | 1014.4 hPa | - | - | - | - |
| 1777128345 | 36.11° C | 39% | 1014.2 hPa | - | - | - | - |
| 1777127445 | 36.67° C | 37% | 1014.1 hPa | - | - | - | - |
| 1777126545 | 36.11° C | 39% | 1014.1 hPa | - | - | - | - |
| 1777125644 | 35.56° C | 39% | 1014 hPa | - | - | - | - |
| 1777124744 | 35° C | 38% | 1012.5 hPa | - | - | - | - |
| 1777123844 | 36.11° C | 37% | 1014 hPa | - | - | - | - |
| 1777122943 | 35.56° C | 38% | 1013.6 hPa | - | - | - | - |
| 1777122043 | 35.56° C | 37% | 1013.4 hPa | - | - | - | - |
| 1777121143 | 35.56° C | 36% | 1013.2 hPa | - | - | - | - |
| 1777120243 | 35° C | 36% | 1013.1 hPa | - | - | - | - |
| 1777119342 | 35.56° C | 34% | 1013.2 hPa | - | - | - | - |
* Rain since midnight (hover to see other rain measurements)
** Current wind speed in m/s (hover to see current wind gust speed)